Time;durP1;ratioP1;P1;durP2;ratioP2;P2;SDS_P1;SDS_P2;PMS_P1;PMS_P2;Temp;Humidity;BMP_temperature;BMP_pressure;BME280_temperature;BME280_humidity;BME280_pressure;Samples;Min_cycle;Max_cycle;Signal;HPM_P1;HPM_P2
2021/08/27 00:00:20;;;;;;;15.32;9.52;;;;;;;19.01;100.00;96850.81;5050903;28;20091;-73
2021/08/27 00:02:46;;;;;;;16.48;10.52;;;;;;;18.88;100.00;96851.28;5052182;28;20037;-73
2021/08/27 00:05:11;;;;;;;15.32;10.30;;;;;;;18.89;100.00;96851.09;5053214;28;20033;-74
2021/08/27 00:07:37;;;;;;;16.83;10.18;;;;;;;18.92;100.00;96863.47;5052114;28;20473;-74
2021/08/27 00:10:03;;;;;;;16.35;9.95;;;;;;;18.92;100.00;96842.63;5048764;28;20050;-74
2021/08/27 00:12:28;;;;;;;22.80;9.85;;;;;;;18.97;100.00;96857.56;5045294;28;20500;-73
2021/08/27 00:14:54;;;;;;;18.40;8.73;;;;;;;18.91;100.00;96845.53;5053494;28;20040;-74
2021/08/27 00:17:29;;;;;;;20.95;10.13;;;;;;;18.87;100.00;96850.41;5052055;28;20021;-73
2021/08/27 00:19:55;;;;;;;17.60;10.32;;;;;;;18.87;100.00;96850.41;5053424;28;20029;-74
2021/08/27 00:22:21;;;;;;;17.83;10.38;;;;;;;18.78;100.00;96851.41;5053085;28;20032;-73
2021/08/27 00:24:46;;;;;;;15.43;10.20;;;;;;;18.77;100.00;96851.53;5053202;28;20400;-73
2021/08/27 00:27:12;;;;;;;16.23;10.13;;;;;;;18.81;100.00;96855.63;5052867;28;20480;-76
2021/08/27 00:29:37;;;;;;;12.57;9.45;;;;;;;18.84;100.00;96869.72;5035154;28;20029;-75
2021/08/27 00:32:03;;;;;;;15.27;10.27;;;;;;;18.74;100.00;96855.44;5053030;28;20052;-74
2021/08/27 00:34:29;;;;;;;14.95;9.85;;;;;;;18.82;100.00;96881.75;5034920;28;20033;-73
2021/08/27 00:36:54;;;;;;;15.27;9.50;;;;;;;18.79;100.00;96872.06;5051707;28;20492;-73
2021/08/27 00:39:20;;;;;;;18.35;9.82;;;;;;;18.88;100.00;96862.97;5050832;28;20492;-73
2021/08/27 00:41:45;;;;;;;14.95;10.00;;;;;;;18.93;100.00;96871.44;5051867;28;20032;-74
2021/08/27 00:44:11;;;;;;;19.60;10.60;;;;;;;18.85;100.00;96871.44;5048145;28;20485;-74
2021/08/27 00:46:36;;;;;;;16.98;11.43;;;;;;;18.78;100.00;96867.66;5032790;28;20079;-74
2021/08/27 00:49:02;;;;;;;20.98;12.00;;;;;;;18.80;100.00;96864.78;5031600;28;20025;-74
2021/08/27 00:51:28;;;;;;;26.15;11.38;;;;;;;18.79;100.00;96861.25;5050074;28;20032;-73
2021/08/27 00:53:53;;;;;;;23.13;11.52;;;;;;;18.74;100.00;96847.31;5051430;28;20025;-73
2021/08/27 00:56:19;;;;;;;24.67;11.90;;;;;;;18.78;100.00;96866.81;5051415;28;20094;-74
2021/08/27 00:58:45;;;;;;;22.80;12.68;;;;;;;18.75;100.00;96851.72;5048102;28;20447;-73
2021/08/27 01:01:10;;;;;;;27.98;11.80;;;;;;;18.78;100.00;96862.25;5039097;28;20064;-74
2021/08/27 01:03:36;;;;;;;17.30;10.70;;;;;;;18.76;100.00;96864.28;5051220;28;20091;-74
2021/08/27 01:06:21;;;;;;;23.17;10.35;;;;;;;18.79;100.00;96865.81;5051469;28;20048;-74
2021/08/27 01:08:57;;;;;;;19.48;10.85;;;;;;;18.79;100.00;96857.66;5051197;28;20041;-74
2021/08/27 01:11:28;;;;;;;17.33;10.60;;;;;;;18.87;100.00;96852.28;5034761;28;20497;-74
2021/08/27 01:14:05;;;;;;;24.42;10.98;;;;;;;18.92;100.00;96853.47;5051260;28;20028;-74
2021/08/27 01:17:07;;;;;;;16.60;11.15;;;;;;;18.89;100.00;96859.22;5050939;28;20032;-74
2021/08/27 01:20:08;;;;;;;21.30;11.05;;;;;;;18.91;100.00;96846.38;5019580;28;20045;-74
2021/08/27 01:22:54;;;;;;;15.20;10.90;;;;;;;18.89;100.00;96853.81;5035933;28;20207;-74
2021/08/27 01:25:21;;;;;;;21.55;11.07;;;;;;;18.87;100.00;96855.00;5051986;28;20025;-74
2021/08/27 01:27:49;;;;;;;15.95;11.02;;;;;;;18.98;100.00;96862.00;5051836;28;20032;-74
2021/08/27 01:30:18;;;;;;;23.10;11.07;;;;;;;18.99;100.00;96863.66;5050808;28;20017;-74
2021/08/27 01:33:02;;;;;;;20.60;10.82;;;;;;;18.98;100.00;96856.56;5050477;28;20032;-75
2021/08/27 01:35:31;;;;;;;20.92;10.90;;;;;;;18.85;100.00;96852.47;5047875;28;20417;-74
2021/08/27 01:38:00;;;;;;;15.30;10.02;;;;;;;18.85;100.00;96849.75;5050604;28;20032;-74
2021/08/27 01:40:27;;;;;;;16.58;11.45;;;;;;;18.90;100.00;96865.50;5050455;28;20025;-74
2021/08/27 01:42:53;;;;;;;15.77;10.23;;;;;;;19.00;100.00;96854.53;5051758;28;20027;-74
2021/08/27 01:45:19;;;;;;;21.75;10.63;;;;;;;19.05;100.00;96853.03;5047087;28;20453;-73
2021/08/27 01:47:45;;;;;;;21.92;10.68;;;;;;;19.02;100.00;96825.38;5049818;28;20025;-74
2021/08/27 01:50:12;;;;;;;18.50;10.55;;;;;;;19.01;100.00;96839.97;5050592;28;20029;-75
2021/08/27 01:52:39;;;;;;;23.92;10.75;;;;;;;19.02;100.00;96847.06;5030339;28;20033;-74
2021/08/27 01:55:06;;;;;;;20.38;11.38;;;;;;;18.90;100.00;96839.25;5027592;28;20033;-74
2021/08/27 01:57:32;;;;;;;19.00;10.85;;;;;;;18.94;100.00;96847.91;5050104;28;20052;-74
2021/08/27 01:59:58;;;;;;;18.55;11.80;;;;;;;18.86;100.00;96837.88;5047223;28;20485;-74
2021/08/27 02:02:24;;;;;;;18.10;10.30;;;;;;;18.88;100.00;96854.84;5035217;28;20049;-75
2021/08/27 02:04:53;;;;;;;19.52;11.45;;;;;;;18.84;100.00;96845.31;5030457;28;20064;-74
2021/08/27 02:07:19;;;;;;;19.67;11.40;;;;;;;18.77;100.00;96846.97;5034186;28;20108;-75
2021/08/27 02:09:45;;;;;;;19.85;11.60;;;;;;;18.79;100.00;96847.69;5048882;28;20128;-74
2021/08/27 02:12:12;;;;;;;15.25;9.30;;;;;;;18.88;100.00;96846.72;5050226;28;20052;-73
2021/08/27 02:14:39;;;;;;;16.23;10.43;;;;;;;19.05;100.00;96849.44;5048998;28;20104;-74
2021/08/27 02:17:06;;;;;;;20.63;11.40;;;;;;;19.09;100.00;96859.81;5053434;28;20403;-73
2021/08/27 02:19:32;;;;;;;19.50;11.68;;;;;;;19.09;100.00;96867.94;5053654;28;20017;-74
2021/08/27 02:21:58;;;;;;;18.13;10.48;;;;;;;19.09;100.00;96858.97;5033400;28;20044;-74
2021/08/27 02:24:30;;;;;;;22.77;10.93;;;;;;;19.06;100.00;96853.88;5017113;28;20041;-74
2021/08/27 02:26:56;;;;;;;20.48;11.32;;;;;;;19.02;100.00;96845.22;5017001;28;20033;-74
2021/08/27 02:29:23;;;;;;;19.33;10.55;;;;;;;19.08;100.00;96851.84;5045363;28;20036;-74
2021/08/27 02:31:51;;;;;;;17.20;11.25;;;;;;;18.99;100.00;96839.28;5042713;28;20400;-74
2021/08/27 02:34:18;;;;;;;14.98;10.07;;;;;;;19.04;100.00;96840.47;5033380;28;20033;-73
2021/08/27 02:36:46;;;;;;;17.85;12.18;;;;;;;19.00;100.00;96844.53;5034792;28;20025;-75
2021/08/27 02:39:14;;;;;;;18.75;10.60;;;;;;;19.01;100.00;96856.25;5036718;28;20465;-74
2021/08/27 02:41:40;;;;;;;22.25;12.32;;;;;;;18.89;100.00;96842.09;5050516;28;20025;-74
2021/08/27 02:44:05;;;;;;;21.60;11.95;;;;;;;18.90;100.00;96850.09;5071355;28;20033;-74
2021/08/27 02:46:31;;;;;;;20.52;12.20;;;;;;;18.92;100.00;96869.75;5053317;28;20040;-74
2021/08/27 02:48:57;;;;;;;20.25;12.43;;;;;;;18.84;100.00;96864.28;5053108;28;20033;-74
2021/08/27 02:51:29;;;;;;;17.00;11.95;;;;;;;18.87;100.00;96855.00;5071085;28;20468;-74
2021/08/27 02:53:57;;;;;;;19.13;12.10;;;;;;;18.81;100.00;96858.34;5053039;28;20056;-74
2021/08/27 02:56:25;;;;;;;19.95;12.00;;;;;;;18.72;100.00;96868.31;5053286;28;20033;-74
2021/08/27 02:58:52;;;;;;;23.60;13.07;;;;;;;18.66;100.00;96859.97;5053039;28;20024;-74
2021/08/27 03:01:36;;;;;;;22.58;11.77;;;;;;;18.67;100.00;96862.50;5050000;28;20053;-74
2021/08/27 03:04:34;;;;;;;26.15;13.77;;;;;;;18.67;100.00;96857.09;5044851;28;20492;-75
2021/08/27 03:07:05;;;;;;;31.00;14.30;;;;;;;18.62;100.00;96864.00;5024734;28;20047;-73
2021/08/27 03:09:48;;;;;;;20.95;13.43;;;;;;;18.69;100.00;96873.19;5040161;28;20089;-73
2021/08/27 03:12:17;;;;;;;32.40;12.43;;;;;;;18.63;100.00;96868.44;5053388;28;20107;-74
2021/08/27 03:14:52;;;;;;;24.38;12.85;;;;;;;18.77;100.00;96868.66;5053334;28;20090;-74
2021/08/27 03:17:20;;;;;;;20.92;11.98;;;;;;;18.70;100.00;96858.66;5056734;28;20013;-74
2021/08/27 03:20:00;;;;;;;23.70;12.77;;;;;;;18.63;100.00;96863.88;5056302;28;20038;-74
2021/08/27 03:22:29;;;;;;;19.10;10.52;;;;;;;18.60;100.00;96857.91;5056561;28;20020;-73
2021/08/27 03:25:04;;;;;;;21.40;10.98;;;;;;;18.64;100.00;96864.72;5036296;28;20025;-73
2021/08/27 03:27:58;;;;;;;18.40;12.32;;;;;;;18.62;100.00;96864.84;5028868;28;20035;-73
2021/08/27 03:30:29;;;;;;;24.63;12.73;;;;;;;18.61;100.00;96859.63;5040404;28;20102;-74
2021/08/27 03:33:00;;;;;;;20.92;13.45;;;;;;;18.68;100.00;96871.50;5052883;28;20033;-74
2021/08/27 03:35:27;;;;;;;26.87;15.20;;;;;;;18.70;100.00;96864.88;5030063;28;20033;-74
2021/08/27 03:37:53;;;;;;;33.72;14.75;;;;;;;18.73;100.00;96875.44;5052597;28;20045;-74
2021/08/27 03:40:20;;;;;;;23.10;13.63;;;;;;;18.68;100.00;96875.06;5023977;28;20032;-73
2021/08/27 03:42:46;;;;;;;25.35;15.32;;;;;;;18.61;100.00;96857.72;5052736;28;20067;-73
2021/08/27 03:45:12;;;;;;;23.88;14.52;;;;;;;18.69;100.00;96867.78;5027317;28;20128;-73
2021/08/27 03:47:40;;;;;;;19.30;12.88;;;;;;;18.75;100.00;96867.97;5035976;28;20029;-73
2021/08/27 03:50:08;;;;;;;19.15;12.85;;;;;;;18.75;100.00;96881.53;5053590;28;20123;-74
2021/08/27 03:52:34;;;;;;;29.88;14.55;;;;;;;18.72;100.00;96879.16;5055887;28;20028;-73
2021/08/27 03:55:01;;;;;;;24.80;12.75;;;;;;;18.66;100.00;96868.97;5055746;28;20031;-74
2021/08/27 03:57:26;;;;;;;22.60;12.43;;;;;;;18.75;100.00;96883.38;5073587;28;20415;-73
2021/08/27 03:59:52;;;;;;;31.60;15.23;;;;;;;18.77;100.00;96886.78;5038785;28;20028;-75
2021/08/27 04:02:17;;;;;;;25.70;14.82;;;;;;;18.71;100.00;96882.84;5052359;28;20033;-73
2021/08/27 04:04:43;;;;;;;28.65;14.30;;;;;;;18.67;100.00;96880.66;5030896;28;20151;-74
2021/08/27 04:07:09;;;;;;;33.53;21.02;;;;;;;18.76;100.00;96879.69;5050870;28;20064;-74
2021/08/27 04:09:36;;;;;;;21.67;11.77;;;;;;;18.76;100.00;96875.13;5046114;28;20404;-74
2021/08/27 04:12:04;;;;;;;27.23;12.43;;;;;;;18.84;100.00;96872.44;5052852;28;20510;-73
2021/08/27 04:14:30;;;;;;;20.80;11.55;;;;;;;18.87;100.00;96874.81;5054587;28;20033;-74
2021/08/27 04:16:56;;;;;;;19.10;11.68;;;;;;;18.84;100.00;96883.28;5055218;28;20033;-74
2021/08/27 04:19:22;;;;;;;20.13;12.75;;;;;;;18.87;100.00;96887.50;5051899;28;20086;-75
2021/08/27 04:21:47;;;;;;;22.77;11.93;;;;;;;18.89;100.00;96885.47;5030363;28;20119;-75
2021/08/27 04:24:13;;;;;;;19.90;11.48;;;;;;;18.99;100.00;96893.47;5044525;28;20530;-74
2021/08/27 04:26:39;;;;;;;24.40;12.90;;;;;;;18.98;100.00;96911.59;5052383;28;20033;-75
2021/08/27 04:29:05;;;;;;;19.58;12.43;;;;;;;19.02;100.00;96898.56;5018416;28;20020;-75
2021/08/27 04:31:31;;;;;;;27.38;14.27;;;;;;;19.08;100.00;96897.94;5035372;28;20114;-74
2021/08/27 04:33:56;;;;;;;38.42;24.20;;;;;;;19.19;100.00;96900.34;5035127;28;20060;-74
2021/08/27 04:36:22;;;;;;;22.63;14.57;;;;;;;19.18;100.00;96890.50;5037170;28;20039;-75
2021/08/27 04:38:50;;;;;;;23.27;13.85;;;;;;;19.23;100.00;96889.00;5072288;28;20435;-74
2021/08/27 04:41:15;;;;;;;31.17;14.88;;;;;;;19.28;100.00;96883.09;5054498;28;20121;-74
2021/08/27 04:43:41;;;;;;;25.63;14.32;;;;;;;19.36;100.00;96902.09;5054358;28;20518;-74
2021/08/27 04:46:10;;;;;;;19.17;12.98;;;;;;;19.40;100.00;96904.38;5051759;28;20412;-75
2021/08/27 04:48:35;;;;;;;22.58;13.27;;;;;;;19.42;100.00;96901.47;5072558;28;20027;-75
2021/08/27 04:51:01;;;;;;;21.83;12.95;;;;;;;19.44;100.00;96904.88;5072554;28;20032;-75
2021/08/27 04:53:26;;;;;;;19.13;12.40;;;;;;;19.47;100.00;96897.22;5034764;28;20037;-74
2021/08/27 04:55:52;;;;;;;24.05;14.30;;;;;;;19.44;100.00;96903.00;5059243;28;20028;-76
2021/08/27 04:58:21;;;;;;;24.48;12.80;;;;;;;19.43;100.00;96916.75;5054098;28;20028;-76
2021/08/27 05:00:46;;;;;;;24.25;11.55;;;;;;;19.42;100.00;96904.19;5054200;28;20035;-77
2021/08/27 05:03:15;;;;;;;24.42;13.70;;;;;;;19.43;100.00;96895.88;5054059;28;20430;-75
2021/08/27 05:05:40;;;;;;;19.10;11.88;;;;;;;19.49;100.00;96902.50;5054284;28;20531;-75
2021/08/27 05:08:06;;;;;;;15.48;10.73;;;;;;;19.64;100.00;96909.00;5071788;28;20107;-75
2021/08/27 05:10:31;;;;;;;16.55;9.80;;;;;;;19.71;100.00;96899.16;5037453;28;20136;-75
2021/08/27 05:12:57;;;;;;;15.25;10.00;;;;;;;19.76;100.00;96910.38;5054199;28;20126;-75
2021/08/27 05:15:22;;;;;;;16.05;8.98;;;;;;;19.96;100.00;96914.44;5071867;28;20024;-75
2021/08/27 05:17:48;;;;;;;18.13;9.70;;;;;;;20.17;100.00;96915.81;5050957;28;20036;-75
2021/08/27 05:20:13;;;;;;;18.08;9.38;;;;;;;20.45;100.00;96917.22;5049105;28;20040;-75
2021/08/27 05:22:39;;;;;;;18.75;9.35;;;;;;;20.68;100.00;96907.31;5054423;28;20024;-75
2021/08/27 05:25:05;;;;;;;22.65;8.15;;;;;;;20.83;100.00;96915.59;5033854;28;20064;-74
2021/08/27 05:27:30;;;;;;;14.57;8.43;;;;;;;21.00;100.00;96925.41;5071722;28;20032;-74
2021/08/27 05:29:56;;;;;;;15.23;9.77;;;;;;;21.10;100.00;96919.81;5054068;28;20035;-75
2021/08/27 05:32:22;;;;;;;14.95;9.65;;;;;;;21.33;100.00;96924.28;5071606;28;20040;-76
2021/08/27 05:34:47;;;;;;;19.10;10.52;;;;;;;21.37;100.00;96933.81;5071616;28;20484;-75
2021/08/27 05:37:13;;;;;;;17.00;10.38;;;;;;;21.07;100.00;96931.84;5053695;28;20048;-74
2021/08/27 05:39:39;;;;;;;21.27;11.95;;;;;;;20.87;100.00;96933.25;5050702;28;20013;-74
2021/08/27 05:42:05;;;;;;;27.83;10.52;;;;;;;20.86;100.00;96929.69;5033098;28;20507;-75
2021/08/27 05:44:30;;;;;;;20.92;12.20;;;;;;;20.90;100.00;96931.03;5071311;28;20478;-75
2021/08/27 05:46:56;;;;;;;16.92;11.43;;;;;;;20.98;100.00;96933.72;5053705;28;20029;-75
2021/08/27 05:49:22;;;;;;;20.50;11.20;;;;;;;21.14;100.00;96946.47;5071199;28;20115;-75
2021/08/27 05:51:47;;;;;;;19.75;11.00;;;;;;;21.19;100.00;96946.81;5037131;28;20040;-75
2021/08/27 05:54:13;;;;;;;84.65;57.40;;;;;;;21.41;100.00;96950.63;5050315;28;20124;-75
2021/08/27 05:56:39;;;;;;;20.65;10.10;;;;;;;21.35;100.00;96954.06;5025781;28;20031;-75
2021/08/27 05:59:04;;;;;;;14.18;9.68;;;;;;;21.77;100.00;96946.34;5067079;28;20033;-75
2021/08/27 06:01:30;;;;;;;15.07;10.32;;;;;;;22.50;96.16;96927.59;5052562;28;20071;-75
2021/08/27 06:03:56;;;;;;;12.73;9.13;;;;;;;24.30;83.86;96942.50;5053679;28;20493;-75
2021/08/27 06:06:21;;;;;;;15.02;8.68;;;;;;;26.57;72.00;96964.31;5053457;28;20024;-75
2021/08/27 06:08:47;;;;;;;13.40;8.07;;;;;;;28.87;60.64;96969.16;5053520;28;20041;-75
2021/08/27 06:11:12;;;;;;;14.98;7.97;;;;;;;30.24;54.07;96980.69;5072273;28;20074;-75
2021/08/27 06:13:38;;;;;;;11.07;6.60;;;;;;;29.36;55.30;96971.06;5036804;28;20410;-75
2021/08/27 06:16:04;;;;;;;11.90;7.43;;;;;;;28.18;58.76;96974.66;5050221;28;20158;-75
2021/08/27 06:18:30;;;;;;;11.00;6.60;;;;;;;27.09;62.18;96965.41;5069935;28;20025;-75
2021/08/27 06:20:55;;;;;;;11.48;6.30;;;;;;;27.09;61.18;96974.50;5053714;28;20019;-74
2021/08/27 06:23:21;;;;;;;9.77;6.43;;;;;;;27.74;59.64;96979.03;5050763;28;20032;-75
2021/08/27 06:25:48;;;;;;;8.60;5.78;;;;;;;29.09;54.45;96970.47;5033445;28;20108;-75
2021/08/27 06:28:13;;;;;;;8.80;6.10;;;;;;;30.78;50.71;96971.47;5046169;28;20029;-75
2021/08/27 06:30:39;;;;;;;8.20;5.68;;;;;;;32.17;46.78;96981.75;5053076;28;20500;-75
2021/08/27 06:33:05;;;;;;;10.57;5.32;;;;;;;31.62;46.73;96975.81;5049878;28;20090;-75
2021/08/27 06:35:31;;;;;;;9.35;5.10;;;;;;;32.30;45.26;96970.41;5051570;28;20036;-75
2021/08/27 06:40:43;;;;;;;15.50;5.32;;;;;;;34.07;40.76;96976.25;5074140;28;20563;-76
2021/08/27 06:43:09;;;;;;;8.23;5.38;;;;;;;34.29;40.71;96971.56;5073962;28;20051;-76
2021/08/27 06:45:35;;;;;;;8.18;5.53;;;;;;;34.23;39.30;96961.50;5073614;28;20029;-76
2021/08/27 06:48:00;;;;;;;9.68;4.70;;;;;;;34.88;38.63;96955.84;5053781;28;20385;-76
2021/08/27 06:50:26;;;;;;;11.40;5.05;;;;;;;35.36;37.69;96957.69;5054510;28;20032;-76
2021/08/27 06:52:55;;;;;;;8.95;4.88;;;;;;;36.08;36.34;96965.47;5056969;28;20029;-75
2021/08/27 06:55:21;;;;;;;8.27;5.18;;;;;;;35.74;36.17;96960.22;5074761;28;20023;-76
2021/08/27 06:57:47;;;;;;;8.23;5.68;;;;;;;35.70;36.96;96969.38;5073542;28;20033;-74
2021/08/27 07:00:13;;;;;;;13.38;5.47;;;;;;;35.90;36.79;96950.03;5040155;28;20029;-77
2021/08/27 07:02:39;;;;;;;10.15;4.88;;;;;;;36.27;35.97;96952.75;5056669;28;20039;-75
2021/08/27 07:05:05;;;;;;;14.30;5.53;;;;;;;36.53;35.94;96959.25;5056992;28;20028;-75
2021/08/27 07:07:30;;;;;;;11.70;5.60;;;;;;;37.06;35.11;96960.78;5039998;28;20434;-77
2021/08/27 07:09:56;;;;;;;9.77;4.80;;;;;;;37.39;35.43;96958.28;5056375;28;20106;-76
2021/08/27 07:12:21;;;;;;;8.15;4.90;;;;;;;37.06;34.65;96963.59;5056605;28;20031;-76
2021/08/27 07:14:50;;;;;;;7.30;4.70;;;;;;;37.38;33.99;96950.19;5056337;28;20488;-74
2021/08/27 07:17:19;;;;;;;8.15;4.40;;;;;;;37.53;33.38;96958.59;5053409;28;20424;-75
2021/08/27 07:19:46;;;;;;;5.80;4.32;;;;;;;37.42;34.03;96965.25;5047635;28;20029;-78
2021/08/27 07:22:12;;;;;;;6.22;4.55;;;;;;;37.58;33.77;96964.16;5053094;28;20083;-76
2021/08/27 07:24:37;;;;;;;6.32;4.88;;;;;;;38.02;34.12;96978.38;5044656;28;20623;-75
2021/08/27 07:27:03;;;;;;;11.95;4.70;;;;;;;38.50;31.81;96974.88;5053117;28;20032;-75
2021/08/27 07:29:29;;;;;;;9.23;4.75;;;;;;;36.69;35.00;96963.78;5069768;28;20142;-75
2021/08/27 07:31:54;;;;;;;7.38;5.40;;;;;;;37.62;32.08;96956.06;5074439;28;20052;-76
2021/08/27 07:34:20;;;;;;;8.68;4.72;;;;;;;38.64;31.32;96955.47;5056282;28;20460;-77
2021/08/27 07:36:45;;;;;;;10.18;5.13;;;;;;;39.25;30.25;96955.16;5073813;28;20459;-75
2021/08/27 07:39:11;;;;;;;11.32;5.07;;;;;;;38.95;30.36;96954.19;5074198;28;20103;-76
2021/08/27 07:41:36;;;;;;;8.73;4.90;;;;;;;38.99;29.76;96958.09;5055891;28;20043;-74
2021/08/27 07:44:02;;;;;;;5.78;4.40;;;;;;;39.84;28.45;96955.72;5039377;28;20024;-74
2021/08/27 07:46:28;;;;;;;8.35;4.63;;;;;;;39.39;29.70;96967.34;5056198;28;20078;-75
2021/08/27 07:48:53;;;;;;;12.65;4.55;;;;;;;39.79;29.12;96955.78;5039006;28;20082;-75
2021/08/27 07:51:19;;;;;;;9.38;4.93;;;;;;;39.02;29.78;96946.31;5073866;28;20028;-76
2021/08/27 07:53:45;;;;;;;6.82;4.88;;;;;;;38.22;31.46;96946.72;5073776;28;20020;-76
2021/08/27 07:56:10;;;;;;;6.22;4.63;;;;;;;38.05;31.20;96952.66;5055919;28;20028;-75
2021/08/27 07:58:36;;;;;;;8.18;4.55;;;;;;;38.41;31.96;96953.38;5053209;28;20072;-75
2021/08/27 08:01:02;;;;;;;7.40;4.68;;;;;;;38.83;31.11;96952.88;5073523;28;20407;-75
2021/08/27 08:03:28;;;;;;;8.93;5.22;;;;;;;39.09;30.20;96957.19;5055575;28;20024;-78
2021/08/27 08:05:53;;;;;;;11.35;5.25;;;;;;;39.37;29.97;96961.19;5055551;28;20031;-77
2021/08/27 08:08:19;;;;;;;8.57;4.75;;;;;;;39.64;28.80;96946.66;5035583;28;20045;-75
2021/08/27 08:10:44;;;;;;;8.15;4.90;;;;;;;39.62;27.96;96923.72;5053812;28;20032;-74
2021/08/27 08:13:10;;;;;;;4.93;4.43;;;;;;;39.84;27.02;96932.50;5073346;28;20064;-74
2021/08/27 08:15:36;;;;;;;8.23;4.80;;;;;;;38.90;28.41;96933.81;5052244;28;20415;-75
2021/08/27 08:18:03;;;;;;;8.57;5.65;;;;;;;36.34;31.25;96929.06;5073634;28;20029;-77
2021/08/27 08:20:28;;;;;;;11.50;5.97;;;;;;;36.48;31.00;96934.13;5035438;28;20029;-77
2021/08/27 08:22:56;;;;;;;7.78;5.25;;;;;;;35.33;33.11;96935.97;5046321;28;20034;-76
2021/08/27 08:25:22;;;;;;;11.80;5.78;;;;;;;34.75;33.36;96931.25;5052091;28;20021;-77
2021/08/27 08:27:47;;;;;;;10.45;6.60;;;;;;;35.51;32.88;96941.09;5071304;28;20097;-77
2021/08/27 08:30:13;;;;;;;7.22;5.18;;;;;;;35.40;32.74;96930.16;5073035;28;20036;-76
2021/08/27 08:32:39;;;;;;;6.75;5.65;;;;;;;34.65;33.62;96932.00;5052291;28;20055;-77
2021/08/27 08:35:04;;;;;;;7.38;5.55;;;;;;;34.25;34.71;96943.47;5072915;28;20059;-75
2021/08/27 08:37:30;;;;;;;8.65;6.63;;;;;;;33.84;35.78;96944.00;5038426;28;20022;-75
2021/08/27 08:39:56;;;;;;;10.77;6.05;;;;;;;34.22;34.08;96955.09;5054701;28;20047;-75
2021/08/27 08:42:22;;;;;;;11.35;6.88;;;;;;;34.64;34.26;96935.06;5072646;28;20025;-75
2021/08/27 08:44:47;;;;;;;12.73;6.47;;;;;;;34.20;34.62;96925.91;5072769;28;20024;-75
2021/08/27 08:47:16;;;;;;;8.60;6.55;;;;;;;34.81;34.43;96931.03;5072675;28;20469;-75
2021/08/27 08:49:42;;;;;;;10.15;6.22;;;;;;;33.83;35.42;96944.25;5054559;28;20103;-75
2021/08/27 08:52:08;;;;;;;13.25;6.93;;;;;;;34.30;35.29;96948.25;5054710;28;20028;-74
2021/08/27 08:54:33;;;;;;;8.45;6.25;;;;;;;35.57;33.08;96941.97;5054595;28;20032;-75
2021/08/27 08:57:00;;;;;;;8.70;7.22;;;;;;;36.55;32.01;96946.72;5054459;28;20091;-77
2021/08/27 08:59:26;;;;;;;8.70;6.35;;;;;;;35.75;32.63;96931.25;5051016;28;20013;-75
2021/08/27 09:01:52;;;;;;;8.25;6.75;;;;;;;35.02;32.73;96934.00;5026032;28;20063;-76
2021/08/27 09:04:17;;;;;;;9.85;6.45;;;;;;;35.54;32.05;96926.66;5054535;28;20051;-74
2021/08/27 09:06:43;;;;;;;7.60;6.15;;;;;;;36.36;31.61;96920.44;5037775;28;20130;-75
2021/08/27 09:09:08;;;;;;;9.88;6.80;;;;;;;36.62;31.22;96911.06;5050846;28;20041;-75
2021/08/27 09:11:34;;;;;;;7.53;5.95;;;;;;;36.67;31.34;96919.41;5052311;28;20099;-76
2021/08/27 09:14:02;;;;;;;9.73;5.95;;;;;;;36.90;31.21;96927.28;5051233;28;20504;-77
2021/08/27 09:16:33;;;;;;;12.48;6.25;;;;;;;37.28;30.67;96934.31;5051047;28;20021;-76
2021/08/27 09:18:59;;;;;;;8.43;6.07;;;;;;;35.50;33.06;96938.59;5051020;28;20021;-76
2021/08/27 09:21:28;;;;;;;14.88;7.40;;;;;;;35.09;34.19;96943.00;5067808;28;20029;-76
2021/08/27 09:24:27;;;;;;;8.15;6.65;;;;;;;33.82;35.47;96943.41;5051058;28;20044;-74
2021/08/27 09:27:01;;;;;;;9.93;7.40;;;;;;;34.38;34.60;96953.34;5002967;28;20559;-75
2021/08/27 09:29:45;;;;;;;9.02;6.35;;;;;;;35.50;32.43;96942.19;5053313;28;20021;-76
2021/08/27 09:32:30;;;;;;;10.23;7.68;;;;;;;35.79;32.06;96931.56;5047574;28;20021;-76
2021/08/27 09:35:16;;;;;;;10.73;7.60;;;;;;;34.14;34.58;96925.00;5032147;28;20016;-76
2021/08/27 09:37:45;;;;;;;13.77;7.63;;;;;;;33.94;35.48;96940.53;5047495;28;20476;-76
2021/08/27 09:40:23;;;;;;;11.27;6.97;;;;;;;35.10;34.02;96928.81;5042057;28;20109;-76
2021/08/27 09:42:50;;;;;;;9.23;6.28;;;;;;;37.05;31.00;96925.63;5050429;28;20431;-77
2021/08/27 09:45:18;;;;;;;18.38;6.90;;;;;;;37.23;30.64;96909.16;5051716;28;20133;-74
2021/08/27 09:48:02;;;;;;;14.57;7.53;;;;;;;36.11;31.89;96911.97;5050316;28;20031;-74
2021/08/27 09:50:33;;;;;;;11.70;6.65;;;;;;;34.43;34.66;96900.59;5047159;28;20103;-75
2021/08/27 09:53:04;;;;;;;8.43;7.50;;;;;;;34.69;34.59;96908.13;5030601;28;20052;-76
2021/08/27 09:55:31;;;;;;;13.50;7.20;;;;;;;36.71;31.58;96906.59;5044445;28;20033;-77
2021/08/27 09:58:06;;;;;;;11.80;6.28;;;;;;;37.98;29.01;96894.28;5050395;28;20108;-75
2021/08/27 10:00:34;;;;;;;10.55;6.82;;;;;;;37.06;29.52;96885.47;5034549;28;20025;-75
2021/08/27 10:03:02;;;;;;;11.38;7.32;;;;;;;37.25;29.83;96893.00;5033815;28;20037;-75
2021/08/27 10:05:38;;;;;;;13.40;7.40;;;;;;;37.63;29.26;96872.00;5050541;28;20036;-74
2021/08/27 10:08:36;;;;;;;11.50;7.25;;;;;;;37.79;29.02;96879.22;5052837;28;20024;-75
2021/08/27 10:11:19;;;;;;;11.93;7.03;;;;;;;36.04;30.88;96877.94;5042017;28;20041;-75
2021/08/27 10:13:45;;;;;;;8.25;7.07;;;;;;;33.59;34.76;96900.09;5074776;28;20027;-75
2021/08/27 10:16:12;;;;;;;12.02;7.80;;;;;;;32.86;36.35;96889.19;5037560;28;20033;-74
2021/08/27 10:18:37;;;;;;;9.63;6.85;;;;;;;30.98;40.07;96886.34;5052507;28;20093;-74
2021/08/27 10:21:04;;;;;;;12.32;7.95;;;;;;;30.36;42.25;96884.16;5057662;28;20033;-74
2021/08/27 10:23:30;;;;;;;11.88;8.50;;;;;;;32.62;38.09;96876.59;5041132;28;20032;-74
2021/08/27 10:25:56;;;;;;;11.30;7.57;;;;;;;33.85;35.26;96865.19;5057395;28;20044;-75
2021/08/27 10:28:27;;;;;;;17.83;7.63;;;;;;;34.01;35.11;96860.66;5057889;28;20389;-75
2021/08/27 10:30:54;;;;;;;;;;;;;;;33.53;35.49;96862.22;5074666;28;20469;-75
2021/08/27 10:33:40;;;;;;;10.57;7.05;;;;;;;33.98;33.80;96858.41;5057658;28;19951;-75
2021/08/27 10:36:06;;;;;;;9.38;7.18;;;;;;;34.99;32.91;96839.97;5075150;28;20021;-75
2021/08/27 10:38:51;;;;;;;16.42;7.45;;;;;;;34.69;33.50;96843.38;5075342;28;20161;-75
2021/08/27 10:41:27;;;;;;;9.38;7.80;;;;;;;33.94;35.16;96860.00;5057139;28;20512;-75
2021/08/27 10:44:06;;;;;;;15.80;8.15;;;;;;;32.68;37.16;96854.25;5075146;28;20076;-75
2021/08/27 10:46:46;;;;;;;16.70;8.15;;;;;;;31.87;38.80;96857.38;5075357;28;20515;-75
2021/08/27 10:49:17;;;;;;;13.07;8.23;;;;;;;31.17;40.93;96867.72;5074977;28;20556;-74
2021/08/27 10:51:44;;;;;;;14.07;8.18;;;;;;;30.89;40.70;96865.63;5057180;28;20032;-73
2021/08/27 10:54:12;;;;;;;11.88;7.75;;;;;;;31.04;38.06;96851.41;5056913;28;20474;-77
2021/08/27 10:56:54;;;;;;;11.55;7.50;;;;;;;32.98;33.30;96839.22;5040577;28;20056;-77
2021/08/27 10:59:21;;;;;;;8.65;6.13;;;;;;;35.16;30.06;96805.34;5056540;28;20029;-77
2021/08/27 11:02:07;;;;;;;14.77;6.80;;;;;;;38.19;26.42;96807.53;5056988;28;20041;-75
2021/08/27 11:04:42;;;;;;;8.57;5.97;;;;;;;39.95;23.90;96797.56;5074467;28;20048;-76
2021/08/27 11:07:20;;;;;;;7.75;5.75;;;;;;;41.31;21.34;96785.34;5056600;28;20032;-75
2021/08/27 11:10:14;;;;;;;13.95;6.10;;;;;;;41.69;20.67;96781.22;5040081;28;20083;-74
2021/08/27 11:12:40;;;;;;;7.72;5.55;;;;;;;41.86;21.01;96775.00;5037817;28;20075;-74
2021/08/27 11:15:30;;;;;;;16.65;7.32;;;;;;;40.31;23.06;96774.63;5074511;28;20060;-75
2021/08/27 11:18:17;;;;;;;7.47;5.55;;;;;;;39.08;23.18;96783.94;5057316;28;20032;-73
2021/08/27 11:20:44;;;;;;;5.65;4.80;;;;;;;38.15;23.68;96772.94;5074660;28;20020;-73
2021/08/27 11:23:10;;;;;;;10.52;6.00;;;;;;;39.65;22.19;96764.31;5056061;28;20032;-75
2021/08/27 11:25:40;;;;;;;9.40;5.43;;;;;;;39.02;22.45;96763.56;5053240;28;20083;-75
2021/08/27 11:28:07;;;;;;;7.63;5.65;;;;;;;37.66;23.36;96773.69;5037210;28;20408;-74